Alasa — C4RW2 — position and weather

sailwx.info

Track history (hours):
 
Tides and Currents Weather Stations Pressure Air Temp Water Temp Dewpoint Dewpoint Depression Visibility Wind Speed Wind Dir Waves Ship Positions

Alasa

Last reported at 2017-Nov-18 15:13 UTC. Time now 2017-Nov-20 09:42 UTC.
Position N 37°10' E 025°48'.

Length 121 m; draft 5.4 m.

Type: Cargo ship. MMSI: 210001000.

Date/timePositionNaut miles runAvg speedWind from/ knotsBaromVisibWave heightAir tempDewpointWater temp
2017-Nov-18 15:13N 37°10' E 025°48'312.1
2017-Nov-18 15:00N 37°11' E 025°45'912.7
2017-Nov-18 14:19N 37°13' E 025°34'412.6
2017-Nov-18 14:00N 37°14' E 025°29'612.4
2017-Nov-18 13:30N 37°15' E 025°22'612.7
2017-Nov-18 13:00N 37°17' E 025°14'612.8
2017-Nov-18 12:30N 37°18' E 025°06'612.9
2017-Nov-18 12:00N 37°19' E 024°58'612.4
2017-Nov-18 11:30N 37°21' E 024°51'4711.7
2017-Nov-18 07:27N 37°36' E 023°54'612.0
2017-Nov-18 06:58N 37°38' E 023°47'511.2
2017-Nov-18 06:30N 37°41' E 023°42'611.8
2017-Nov-18 06:00N 37°46' E 023°38'611.9
2017-Nov-18 05:30N 37°52' E 023°35'510.0
2017-Nov-18 05:00N 37°57' E 023°36'1 1.2
2017-Nov-18 04:28N 37°57' E 023°35'0 0.0
2017-Nov-18 03:58N 37°57' E 023°35'0 0.0
2017-Nov-18 03:28N 37°57' E 023°35'0 0.0
2017-Nov-18 02:58N 37°57' E 023°35'0 0.0
2017-Nov-18 02:28N 37°57' E 023°35'0 0.0
2017-Nov-18 01:58N 37°57' E 023°35'0 0.0
2017-Nov-18 01:28N 37°57' E 023°35'0 0.0
2017-Nov-18 00:58N 37°57' E 023°35'0 0.0
2017-Nov-18 00:28N 37°57' E 023°35'0 0.0
2017-Nov-17 23:58N 37°57' E 023°35'0 0.0
2017-Nov-17 23:28N 37°57' E 023°35'0 0.0
2017-Nov-17 22:58N 37°57' E 023°35'0 0.0
2017-Nov-17 22:28N 37°57' E 023°35'0 0.0
2017-Nov-17 21:58N 37°57' E 023°35'0 0.0
2017-Nov-17 21:25N 37°57' E 023°35'0 0.0
2017-Nov-17 20:58N 37°57' E 023°35'0 0.0
2017-Nov-17 20:28N 37°57' E 023°35'0 0.0
2017-Nov-17 19:58N 37°57' E 023°35'0 0.0
2017-Nov-17 19:31N 37°57' E 023°35'0 0.0
2017-Nov-17 18:58N 37°57' E 023°35'0 0.0
2017-Nov-17 18:28N 37°57' E 023°35'0 0.0
2017-Nov-17 18:00N 37°57' E 023°35'0 0.0
2017-Nov-17 17:31N 37°57' E 023°35'0 0.0
2017-Nov-17 17:00N 37°57' E 023°35'0 0.0
2017-Nov-17 16:30N 37°57' E 023°35'0 0.8
2017-Nov-17 16:00N 37°57' E 023°35'2 3.4
2017-Nov-17 15:30N 37°55' E 023°36'0 1.0
2017-Nov-17 15:00N 37°55' E 023°35'1 1.7
2017-Nov-17 14:30N 37°54' E 023°35'1 1.7
2017-Nov-17 14:00N 37°54' E 023°34'0 0.2
2017-Nov-17 13:27N 37°54' E 023°33'0 0.3
2017-Nov-17 13:00N 37°54' E 023°34'3 5.3
2017-Nov-17 12:31N 37°52' E 023°36'510.6
2017-Nov-17 12:00N 37°48' E 023°40'612.4
2017-Nov-17 11:30N 37°43' E 023°44'611.6
2017-Nov-17 10:59N 37°39' E 023°50'4512.3
2017-Nov-17 07:19N 37°25' E 024°44'411.7
2017-Nov-17 07:00N 37°23' E 024°47'611.8
2017-Nov-17 06:30N 37°20' E 024°54'611.9
2017-Nov-17 05:58N 37°18' E 025°02'612.0
2017-Nov-17 05:30N 37°17' E 025°09'611.9
2017-Nov-17 05:00N 37°16' E 025°16'611.9
2017-Nov-17 04:30N 37°15' E 025°24'712.4
2017-Nov-17 03:56N 37°14' E 025°32'512.3
2017-Nov-17 03:30N 37°12' E 025°39'611.9
2017-Nov-17 03:00N 37°11' E 025°46'38812.8
2017-Nov-15 20:50N 34°33' E 033°03'412.6
2017-Nov-15 20:29N 34°38' E 033°04'3 6.4
2017-Nov-15 19:59N 34°39' E 033°01'0 0.0
2017-Nov-15 19:29N 34°39' E 033°01'0 0.0
2017-Nov-15 18:59N 34°39' E 033°01'0 0.0
2017-Nov-15 18:29N 34°39' E 033°01'0 0.0
2017-Nov-15 17:59N 34°39' E 033°01'0 0.0
2017-Nov-15 17:29N 34°39' E 033°01'0 0.0
2017-Nov-15 16:59N 34°39' E 033°01'0 0.0
2017-Nov-15 16:29N 34°39' E 033°01'0 0.0
2017-Nov-15 15:59N 34°39' E 033°01'0 0.0
2017-Nov-15 15:29N 34°39' E 033°01'0 0.4
2017-Nov-15 15:01N 34°39' E 033°01'2 4.2
2017-Nov-15 14:29N 34°39' E 033°04'1 1.7
2017-Nov-15 14:00N 34°38' E 033°05'141 6.0
2017-Nov-14 14:26N 32°52' E 034°57'511.3
2017-Nov-14 14:00N 32°53' E 034°51'13714.4
2017-Nov-14 04:30N 34°37' E 033°04'3 6.5
2017-Nov-14 04:00N 34°39' E 033°01'0 0.2
2017-Nov-14 03:30N 34°39' E 033°01'0 0.0
2017-Nov-14 03:00N 34°39' E 033°01'0 0.0
2017-Nov-14 02:30N 34°39' E 033°01'0 0.0
2017-Nov-14 02:00N 34°39' E 033°01'0 0.0
2017-Nov-14 01:30N 34°39' E 033°01'0 0.0
2017-Nov-14 01:00N 34°39' E 033°01'0 0.0
2017-Nov-14 00:30N 34°39' E 033°01'0 0.0
2017-Nov-14 00:00N 34°39' E 033°01'0 0.0
2017-Nov-13 23:30N 34°39' E 033°01'0 0.0
2017-Nov-13 23:00N 34°39' E 033°01'0 0.0
2017-Nov-13 22:30N 34°39' E 033°01'0 0.0
2017-Nov-13 22:00N 34°39' E 033°01'382 9.6
2017-Nov-12 06:06N 37°10' E 025°48'114.0
2017-Nov-12 06:00N 37°11' E 025°46'1013.7
2017-Nov-12 05:15N 37°14' E 025°34'313.5
2017-Nov-12 05:00N 37°15' E 025°30'713.8
2017-Nov-12 04:31N 37°16' E 025°22'713.3
2017-Nov-12 04:00N 37°17' E 025°13'713.1
2017-Nov-12 03:29N 37°19' E 025°05'613.4
2017-Nov-12 03:00N 37°20' E 024°57'713.2
2017-Nov-12 02:30N 37°22' E 024°49'4213.6
2017-Nov-11 23:25N 37°35' E 023°59'613.9
2017-Nov-11 22:59N 37°37' E 023°52'713.6
2017-Nov-11 22:29N 37°40' E 023°44'613.0
2017-Nov-11 22:00N 37°45' E 023°40'713.6
2017-Nov-11 21:31N 37°51' E 023°36'510.5
2017-Nov-11 21:00N 37°56' E 023°36'1 1.6
2017-Nov-11 20:28N 37°57' E 023°35'0 0.0
2017-Nov-11 19:58N 37°57' E 023°35'0 0.0
2017-Nov-11 19:28N 37°57' E 023°35'0 0.0
2017-Nov-11 18:58N 37°57' E 023°35'0 0.0
2017-Nov-11 18:28N 37°57' E 023°35'0 0.0
2017-Nov-11 17:58N 37°57' E 023°35'0 0.0
2017-Nov-11 17:28N 37°57' E 023°35'0 0.0
2017-Nov-11 16:58N 37°57' E 023°35'0 0.0
2017-Nov-11 16:25N 37°57' E 023°35'0 0.0
2017-Nov-11 15:58N 37°57' E 023°35'0 0.0
2017-Nov-11 15:28N 37°57' E 023°35'0 0.0
2017-Nov-11 14:58N 37°57' E 023°35'0 0.0
2017-Nov-11 14:28N 37°57' E 023°35'0 0.0
2017-Nov-11 13:58N 37°57' E 023°35'0 0.0
2017-Nov-11 13:28N 37°57' E 023°35'0 0.0
2017-Nov-11 12:58N 37°57' E 023°35'0 0.0
2017-Nov-11 12:28N 37°57' E 023°35'0 0.0
2017-Nov-11 11:58N 37°57' E 023°35'0 0.0
2017-Nov-11 11:28N 37°57' E 023°35'0 0.0
2017-Nov-11 10:58N 37°57' E 023°35'0 0.0
2017-Nov-11 10:28N 37°57' E 023°35'0 0.0
2017-Nov-11 09:58N 37°57' E 023°35'0 0.0
2017-Nov-11 09:28N 37°57' E 023°35'0 0.0
2017-Nov-11 08:58N 37°57' E 023°35'0 0.0
2017-Nov-11 08:28N 37°57' E 023°35'0 0.0
2017-Nov-11 07:58N 37°57' E 023°35'0 0.0
2017-Nov-11 07:28N 37°57' E 023°35'0 0.0
2017-Nov-11 06:58N 37°57' E 023°35'0 0.0
2017-Nov-11 06:28N 37°57' E 023°35'0 0.0
2017-Nov-11 05:58N 37°57' E 023°35'0 0.0
2017-Nov-11 05:28N 37°57' E 023°35'0 0.0
2017-Nov-11 04:58N 37°57' E 023°35'0 0.0
2017-Nov-11 04:28N 37°57' E 023°35'0 0.0
2017-Nov-11 04:01N 37°57' E 023°35'0 0.0
2017-Nov-11 03:31N 37°57' E 023°35'0 0.0
2017-Nov-11 03:00N 37°57' E 023°35'0 0.0
2017-Nov-11 02:30N 37°57' E 023°35'0 0.0
2017-Nov-11 02:00N 37°57' E 023°35'0 0.0
2017-Nov-11 01:30N 37°57' E 023°35'0 0.0
2017-Nov-11 01:00N 37°57' E 023°35'0 0.0
2017-Nov-11 00:30N 37°57' E 023°35'0 0.0
2017-Nov-11 00:00N 37°57' E 023°35'0 0.0
2017-Nov-10 23:30N 37°57' E 023°35'0 0.0
2017-Nov-10 23:00N 37°57' E 023°35'1 3.0
2017-Nov-10 22:30N 37°56' E 023°35'1 1.2
2017-Nov-10 21:59N 37°55' E 023°35'1 2.1
2017-Nov-10 21:30N 37°55' E 023°34'1 1.2
2017-Nov-10 20:58N 37°54' E 023°34'0 0.1
2017-Nov-10 20:28N 37°54' E 023°34'0 0.1
2017-Nov-10 19:58N 37°54' E 023°34'0 0.1
2017-Nov-10 19:28N 37°54' E 023°34'0 0.1
2017-Nov-10 18:58N 37°54' E 023°33'0 0.1
2017-Nov-10 18:28N 37°55' E 023°34'0 0.0
2017-Nov-10 17:58N 37°55' E 023°34'0 0.0
2017-Nov-10 17:28N 37°54' E 023°34'0 0.1
2017-Nov-10 16:58N 37°55' E 023°34'0 0.1
2017-Nov-10 16:28N 37°54' E 023°34'0 0.1
2017-Nov-10 15:58N 37°55' E 023°34'0 0.0
2017-Nov-10 15:28N 37°55' E 023°34'0 0.0
2017-Nov-10 14:58N 37°55' E 023°34'0 0.1
2017-Nov-10 14:28N 37°55' E 023°34'0 0.0
2017-Nov-10 13:58N 37°55' E 023°34'0 0.0
2017-Nov-10 13:28N 37°55' E 023°34'0 0.0
2017-Nov-10 12:58N 37°55' E 023°34'0 0.0
2017-Nov-10 12:28N 37°55' E 023°34'0 0.1
2017-Nov-10 11:58N 37°55' E 023°34'0 0.4
2017-Nov-10 11:31N 37°55' E 023°34'4 8.5
2017-Nov-10 11:00N 37°52' E 023°38'612.2
2017-Nov-10 10:31N 37°47' E 023°42'612.2
2017-Nov-10 10:01N 37°41' E 023°45'612.0
2017-Nov-10 09:31N 37°37' E 023°51'33311.9
2017-Nov-09 05:33N 35°36' E 030°17'212.2
2017-Nov-09 05:25N 35°35' E 030°18'2212.6
2017-Nov-09 03:41N 35°24' E 030°42'212.6
2017-Nov-09 03:30N 35°23' E 030°44'612.5
2017-Nov-09 03:00N 35°20' E 030°51'11811.9
2017-Nov-08 17:06N 34°34' E 033°03'312.5
2017-Nov-08 16:51N 34°37' E 033°04'3 8.1
2017-Nov-08 16:31N 34°39' E 033°02'0 0.9
2017-Nov-08 15:59N 34°39' E 033°01'0 0.0
2017-Nov-08 15:29N 34°39' E 033°01'  
Track history (hours):
 
Tides and Currents Weather Stations Pressure Air Temp Water Temp Dewpoint Dewpoint Depression Visibility Wind Speed Wind Dir Waves Ship Positions

Alasa

Last reported at 2017-Nov-18 15:13 UTC. Time now 2017-Nov-20 09:42 UTC.
Position N 37°10' E 025°48'.

Length 121 m; draft 5.4 m.

Type: Cargo ship. MMSI: 210001000.

Date/timePositionNaut miles runAvg speedWind from/ knotsBaromVisibWave heightAir tempDewpointWater temp
2017-Nov-18 15:13N 37°10' E 025°48'312.1
2017-Nov-18 15:00N 37°11' E 025°45'912.7
2017-Nov-18 14:19N 37°13' E 025°34'412.6
2017-Nov-18 14:00N 37°14' E 025°29'612.4
2017-Nov-18 13:30N 37°15' E 025°22'612.7
2017-Nov-18 13:00N 37°17' E 025°14'612.8
2017-Nov-18 12:30N 37°18' E 025°06'612.9
2017-Nov-18 12:00N 37°19' E 024°58'612.4
2017-Nov-18 11:30N 37°21' E 024°51'4711.7
2017-Nov-18 07:27N 37°36' E 023°54'612.0
2017-Nov-18 06:58N 37°38' E 023°47'511.2
2017-Nov-18 06:30N 37°41' E 023°42'611.8
2017-Nov-18 06:00N 37°46' E 023°38'611.9
2017-Nov-18 05:30N 37°52' E 023°35'510.0
2017-Nov-18 05:00N 37°57' E 023°36'1 1.2
2017-Nov-18 04:28N 37°57' E 023°35'0 0.0
2017-Nov-18 03:58N 37°57' E 023°35'0 0.0
2017-Nov-18 03:28N 37°57' E 023°35'0 0.0
2017-Nov-18 02:58N 37°57' E 023°35'0 0.0
2017-Nov-18 02:28N 37°57' E 023°35'0 0.0
2017-Nov-18 01:58N 37°57' E 023°35'0 0.0
2017-Nov-18 01:28N 37°57' E 023°35'0 0.0
2017-Nov-18 00:58N 37°57' E 023°35'0 0.0
2017-Nov-18 00:28N 37°57' E 023°35'0 0.0
2017-Nov-17 23:58N 37°57' E 023°35'0 0.0
2017-Nov-17 23:28N 37°57' E 023°35'0 0.0
2017-Nov-17 22:58N 37°57' E 023°35'0 0.0
2017-Nov-17 22:28N 37°57' E 023°35'0 0.0
2017-Nov-17 21:58N 37°57' E 023°35'0 0.0
2017-Nov-17 21:25N 37°57' E 023°35'0 0.0
2017-Nov-17 20:58N 37°57' E 023°35'0 0.0
2017-Nov-17 20:28N 37°57' E 023°35'0 0.0
2017-Nov-17 19:58N 37°57' E 023°35'0 0.0
2017-Nov-17 19:31N 37°57' E 023°35'0 0.0
2017-Nov-17 18:58N 37°57' E 023°35'0 0.0
2017-Nov-17 18:28N 37°57' E 023°35'0 0.0
2017-Nov-17 18:00N 37°57' E 023°35'0 0.0
2017-Nov-17 17:31N 37°57' E 023°35'0 0.0
2017-Nov-17 17:00N 37°57' E 023°35'0 0.0
2017-Nov-17 16:30N 37°57' E 023°35'0 0.8
2017-Nov-17 16:00N 37°57' E 023°35'2 3.4
2017-Nov-17 15:30N 37°55' E 023°36'0 1.0
2017-Nov-17 15:00N 37°55' E 023°35'1 1.7
2017-Nov-17 14:30N 37°54' E 023°35'1 1.7
2017-Nov-17 14:00N 37°54' E 023°34'0 0.2
2017-Nov-17 13:27N 37°54' E 023°33'0 0.3
2017-Nov-17 13:00N 37°54' E 023°34'3 5.3
2017-Nov-17 12:31N 37°52' E 023°36'510.6
2017-Nov-17 12:00N 37°48' E 023°40'612.4
2017-Nov-17 11:30N 37°43' E 023°44'611.6
2017-Nov-17 10:59N 37°39' E 023°50'4512.3
2017-Nov-17 07:19N 37°25' E 024°44'411.7
2017-Nov-17 07:00N 37°23' E 024°47'611.8
2017-Nov-17 06:30N 37°20' E 024°54'611.9
2017-Nov-17 05:58N 37°18' E 025°02'612.0
2017-Nov-17 05:30N 37°17' E 025°09'611.9
2017-Nov-17 05:00N 37°16' E 025°16'611.9
2017-Nov-17 04:30N 37°15' E 025°24'712.4
2017-Nov-17 03:56N 37°14' E 025°32'512.3
2017-Nov-17 03:30N 37°12' E 025°39'611.9
2017-Nov-17 03:00N 37°11' E 025°46'38812.8
2017-Nov-15 20:50N 34°33' E 033°03'412.6
2017-Nov-15 20:29N 34°38' E 033°04'3 6.4
2017-Nov-15 19:59N 34°39' E 033°01'0 0.0
2017-Nov-15 19:29N 34°39' E 033°01'0 0.0
2017-Nov-15 18:59N 34°39' E 033°01'0 0.0
2017-Nov-15 18:29N 34°39' E 033°01'0 0.0
2017-Nov-15 17:59N 34°39' E 033°01'0 0.0
2017-Nov-15 17:29N 34°39' E 033°01'0 0.0
2017-Nov-15 16:59N 34°39' E 033°01'0 0.0
2017-Nov-15 16:29N 34°39' E 033°01'0 0.0
2017-Nov-15 15:59N 34°39' E 033°01'0 0.0
2017-Nov-15 15:29N 34°39' E 033°01'0 0.4
2017-Nov-15 15:01N 34°39' E 033°01'2 4.2
2017-Nov-15 14:29N 34°39' E 033°04'1 1.7
2017-Nov-15 14:00N 34°38' E 033°05'141 6.0
2017-Nov-14 14:26N 32°52' E 034°57'511.3
2017-Nov-14 14:00N 32°53' E 034°51'13714.4
2017-Nov-14 04:30N 34°37' E 033°04'3 6.5
2017-Nov-14 04:00N 34°39' E 033°01'0 0.2
2017-Nov-14 03:30N 34°39' E 033°01'0 0.0
2017-Nov-14 03:00N 34°39' E 033°01'0 0.0
2017-Nov-14 02:30N 34°39' E 033°01'0 0.0
2017-Nov-14 02:00N 34°39' E 033°01'0 0.0
2017-Nov-14 01:30N 34°39' E 033°01'0 0.0
2017-Nov-14 01:00N 34°39' E 033°01'0 0.0
2017-Nov-14 00:30N 34°39' E 033°01'0 0.0
2017-Nov-14 00:00N 34°39' E 033°01'0 0.0
2017-Nov-13 23:30N 34°39' E 033°01'0 0.0
2017-Nov-13 23:00N 34°39' E 033°01'0 0.0
2017-Nov-13 22:30N 34°39' E 033°01'0 0.0
2017-Nov-13 22:00N 34°39' E 033°01'382 9.6
2017-Nov-12 06:06N 37°10' E 025°48'114.0
2017-Nov-12 06:00N 37°11' E 025°46'1013.7
2017-Nov-12 05:15N 37°14' E 025°34'313.5
2017-Nov-12 05:00N 37°15' E 025°30'713.8
2017-Nov-12 04:31N 37°16' E 025°22'713.3
2017-Nov-12 04:00N 37°17' E 025°13'713.1
2017-Nov-12 03:29N 37°19' E 025°05'613.4
2017-Nov-12 03:00N 37°20' E 024°57'713.2
2017-Nov-12 02:30N 37°22' E 024°49'4213.6
2017-Nov-11 23:25N 37°35' E 023°59'613.9
2017-Nov-11 22:59N 37°37' E 023°52'713.6
2017-Nov-11 22:29N 37°40' E 023°44'613.0
2017-Nov-11 22:00N 37°45' E 023°40'713.6
2017-Nov-11 21:31N 37°51' E 023°36'510.5
2017-Nov-11 21:00N 37°56' E 023°36'1 1.6
2017-Nov-11 20:28N 37°57' E 023°35'0 0.0
2017-Nov-11 19:58N 37°57' E 023°35'0 0.0
2017-Nov-11 19:28N 37°57' E 023°35'0 0.0
2017-Nov-11 18:58N 37°57' E 023°35'0 0.0
2017-Nov-11 18:28N 37°57' E 023°35'0 0.0
2017-Nov-11 17:58N 37°57' E 023°35'0 0.0
2017-Nov-11 17:28N 37°57' E 023°35'0 0.0
2017-Nov-11 16:58N 37°57' E 023°35'0 0.0
2017-Nov-11 16:25N 37°57' E 023°35'0 0.0
2017-Nov-11 15:58N 37°57' E 023°35'0 0.0
2017-Nov-11 15:28N 37°57' E 023°35'0 0.0
2017-Nov-11 14:58N 37°57' E 023°35'0 0.0
2017-Nov-11 14:28N 37°57' E 023°35'0 0.0
2017-Nov-11 13:58N 37°57' E 023°35'0 0.0
2017-Nov-11 13:28N 37°57' E 023°35'0 0.0
2017-Nov-11 12:58N 37°57' E 023°35'0 0.0
2017-Nov-11 12:28N 37°57' E 023°35'0 0.0
2017-Nov-11 11:58N 37°57' E 023°35'0 0.0
2017-Nov-11 11:28N 37°57' E 023°35'0 0.0
2017-Nov-11 10:58N 37°57' E 023°35'0 0.0
2017-Nov-11 10:28N 37°57' E 023°35'0 0.0
2017-Nov-11 09:58N 37°57' E 023°35'0 0.0
2017-Nov-11 09:28N 37°57' E 023°35'0 0.0
2017-Nov-11 08:58N 37°57' E 023°35'0 0.0
2017-Nov-11 08:28N 37°57' E 023°35'0 0.0
2017-Nov-11 07:58N 37°57' E 023°35'0 0.0
2017-Nov-11 07:28N 37°57' E 023°35'0 0.0
2017-Nov-11 06:58N 37°57' E 023°35'0 0.0
2017-Nov-11 06:28N 37°57' E 023°35'0 0.0
2017-Nov-11 05:58N 37°57' E 023°35'0 0.0
2017-Nov-11 05:28N 37°57' E 023°35'0 0.0
2017-Nov-11 04:58N 37°57' E 023°35'0 0.0
2017-Nov-11 04:28N 37°57' E 023°35'0 0.0
2017-Nov-11 04:01N 37°57' E 023°35'0 0.0
2017-Nov-11 03:31N 37°57' E 023°35'0 0.0
2017-Nov-11 03:00N 37°57' E 023°35'0 0.0
2017-Nov-11 02:30N 37°57' E 023°35'0 0.0
2017-Nov-11 02:00N 37°57' E 023°35'0 0.0
2017-Nov-11 01:30N 37°57' E 023°35'0 0.0
2017-Nov-11 01:00N 37°57' E 023°35'0 0.0
2017-Nov-11 00:30N 37°57' E 023°35'0 0.0
2017-Nov-11 00:00N 37°57' E 023°35'0 0.0
2017-Nov-10 23:30N 37°57' E 023°35'0 0.0
2017-Nov-10 23:00N 37°57' E 023°35'1 3.0
2017-Nov-10 22:30N 37°56' E 023°35'1 1.2
2017-Nov-10 21:59N 37°55' E 023°35'1 2.1
2017-Nov-10 21:30N 37°55' E 023°34'1 1.2
2017-Nov-10 20:58N 37°54' E 023°34'0 0.1
2017-Nov-10 20:28N 37°54' E 023°34'0 0.1
2017-Nov-10 19:58N 37°54' E 023°34'0 0.1
2017-Nov-10 19:28N 37°54' E 023°34'0 0.1
2017-Nov-10 18:58N 37°54' E 023°33'0 0.1
2017-Nov-10 18:28N 37°55' E 023°34'0 0.0
2017-Nov-10 17:58N 37°55' E 023°34'0 0.0
2017-Nov-10 17:28N 37°54' E 023°34'0 0.1
2017-Nov-10 16:58N 37°55' E 023°34'0 0.1
2017-Nov-10 16:28N 37°54' E 023°34'0 0.1
2017-Nov-10 15:58N 37°55' E 023°34'0 0.0
2017-Nov-10 15:28N 37°55' E 023°34'0 0.0
2017-Nov-10 14:58N 37°55' E 023°34'0 0.1
2017-Nov-10 14:28N 37°55' E 023°34'0 0.0
2017-Nov-10 13:58N 37°55' E 023°34'0 0.0
2017-Nov-10 13:28N 37°55' E 023°34'0 0.0
2017-Nov-10 12:58N 37°55' E 023°34'0 0.0
2017-Nov-10 12:28N 37°55' E 023°34'0 0.1
2017-Nov-10 11:58N 37°55' E 023°34'0 0.4
2017-Nov-10 11:31N 37°55' E 023°34'4 8.5
2017-Nov-10 11:00N 37°52' E 023°38'612.2
2017-Nov-10 10:31N 37°47' E 023°42'612.2
2017-Nov-10 10:01N 37°41' E 023°45'612.0
2017-Nov-10 09:31N 37°37' E 023°51'33311.9
2017-Nov-09 05:33N 35°36' E 030°17'212.2
2017-Nov-09 05:25N 35°35' E 030°18'2212.6
2017-Nov-09 03:41N 35°24' E 030°42'212.6
2017-Nov-09 03:30N 35°23' E 030°44'612.5
2017-Nov-09 03:00N 35°20' E 030°51'11811.9
2017-Nov-08 17:06N 34°34' E 033°03'312.5
2017-Nov-08 16:51N 34°37' E 033°04'3 8.1
2017-Nov-08 16:31N 34°39' E 033°02'0 0.9
2017-Nov-08 15:59N 34°39' E 033°01'0 0.0
2017-Nov-08 15:29N 34°39' E 033°01'  

Dump ship's entire track history